EDT,Max TemperatureF,Mean TemperatureF,Min TemperatureF,Max Dew PointF,MeanDew PointF,Min DewpointF,Max Humidity, Mean Humidity, Min Humidity, Max Sea Level PressureIn, Mean Sea Level PressureIn, Min Sea Level PressureIn, Max VisibilityMiles, Mean VisibilityMiles, Min VisibilityMiles, Max Wind SpeedMPH, Mean Wind SpeedMPH, Max Gust SpeedMPH,PrecipitationIn, CloudCover, Events, WindDirDegrees
2012-10-1,57,54,51,57,54,50,100,100,94,29.98,29.95,29.91,10,6,2,8,2,,0.05,6,Rain,82
2012-10-2,78,66,55,72,62,55,100,95,69,30.04,29.93,29.88,10,8,2,13,6,18,0.05,6,Rain,90
2012-10-3,78,68,57,64,62,57,100,84,54,30.23,30.14,30.04,10,9,3,9,2,,0.00,1,Rain,208
2012-10-4,75,64,53,64,56,50,100,77,41,30.32,30.27,30.23,10,10,7,12,3,20,0.00,1,,268
2012-10-5,75,60,46,57,52,46,100,77,41,30.29,30.19,30.08,10,9,2,7,2,,0.00,0,,219
2012-10-6,69,58,48,59,52,45,100,83,63,30.10,30.04,29.99,10,10,5,15,3,20,0.00,4,,288
2012-10-7,50,44,39,48,44,39,100,93,66,30.20,30.11,30.06,10,8,2,9,3,,0.12,6,Rain,338
2012-10-8,44,40,37,43,42,37,100,99,87,30.27,30.21,30.18,10,8,2,7,1,,0.02,6,Rain,96
2012-10-9,55,48,42,48,45,43,100,89,67,30.21,30.15,30.10,10,9,2,4,1,,0.00,7,,95
2012-10-10,60,50,39,50,45,37,100,81,59,30.20,30.09,30.05,10,9,3,17,5,26,0.00,4,,272
2012-10-11,64,50,35,43,35,27,100,62,24,30.33,30.26,30.21,10,10,5,9,3,,0.00,0,,271
2012-10-12,64,52,41,43,38,34,100,60,32,30.39,30.28,30.23,10,10,10,9,3,,0.00,0,,300
2012-10-13,62,50,37,45,40,34,100,74,42,30.50,30.41,30.33,10,10,5,9,2,,0.00,0,,170
2012-10-14,71,55,39,57,50,39,100,83,53,30.33,30.19,30.04,10,9,4,14,3,17,0.00,2,,196
2012-10-15,69,60,51,61,50,36,100,72,35,30.03,29.90,29.81,10,10,7,22,9,29,0.01,4,Rain,259
2012-10-16,64,53,42,41,37,30,87,59,28,30.01,29.96,29.92,10,10,5,13,5,22,0.00,1,,290
2012-10-17,69,51,33,45,41,34,100,75,32,30.04,29.97,29.92,10,10,7,10,1,,0.00,0,,175
2012-10-18,64,55,46,55,52,45,94,82,68,29.92,29.86,29.80,10,10,10,18,6,26,0.00,3,Thunderstorm,185
2012-10-19,66,55,44,54,40,27,100,61,23,29.82,29.78,29.70,10,10,7,14,4,23,0.00,2,,223
2012-10-20,57,50,42,39,37,36,76,61,44,30.02,29.88,29.78,10,10,10,14,5,18,0.00,4,,279
2012-10-21,64,52,39,39,36,30,93,63,28,30.20,30.13,30.03,10,10,10,10,5,,0.00,0,,261
2012-10-22,75,56,37,48,44,37,100,71,36,30.29,30.23,30.18,10,10,5,5,1,,0.00,0,,226
2012-10-23,78,60,42,54,48,43,100,72,28,30.25,30.20,30.14,10,9,3,8,1,,0.00,0,,235
2012-10-24,78,63,48,54,49,45,100,69,30,30.26,30.20,30.16,10,10,5,5,0,,0.00,0,,245
2012-10-25,78,61,44,54,48,37,100,69,23,30.24,30.19,30.14,10,10,7,8,1,,0.00,0,,179
2012-10-26,73,60,48,61,53,48,100,83,41,30.21,30.13,30.05,10,8,1,8,1,,0.00,3,,98
2012-10-27,64,58,50,59,55,46,100,93,73,30.06,29.94,29.87,10,7,1,10,2,16,0.04,7,Rain,357
2012-10-28,51,46,41,46,43,37,93,84,76,29.90,29.82,29.76,10,10,4,14,8,18,0.00,8,Rain,323
2012-10-29,41,38,35,36,33,30,93,86,81,29.78,29.63,29.35,10,8,2,24,12,47,0.01,8,Rain-Snow,292
2012-10-30,39,36,33,30,29,27,81,73,65,29.58,29.41,29.29,10,10,5,31,21,44,0.00,6,Snow,276
2012-10-31,42,40,37,34,32,30,87,76,65,29.77,29.68,29.58,10,10,10,20,14,28,0.00,8,Rain,274